Time;durP1;ratioP1;P1;durP2;ratioP2;P2;SDS_P1;SDS_P2;PMS_P1;PMS_P2;Temp;Humidity;BMP_temperature;BMP_pressure;BME280_temperature;BME280_humidity;BME280_pressure;Samples;Min_cycle;Max_cycle;Signal;HPM_P1;HPM_P2
2023/04/26 00:02:06;;;;;;;;;;;;;;;11.82;88.19;99897.63;4975606;28;19922;-89
2023/04/26 00:04:35;;;;;;;;;;;;;;;11.83;88.11;99888.53;4986326;28;19965;-89
2023/04/26 00:07:03;;;;;;;;;;;;;;;11.85;87.72;99891.88;4982627;28;19922;-88
2023/04/26 00:09:29;;;;;;;;;;;;;;;11.88;87.72;99886.13;4992631;28;20020;-89
2023/04/26 00:11:54;;;;;;;;;;;;;;;11.91;88.26;99901.91;4967671;28;20008;-90
2023/04/26 00:14:20;;;;;;;;;;;;;;;11.95;88.12;99891.59;4971634;28;19961;-89
2023/04/26 00:16:45;;;;;;;;;;;;;;;11.97;87.59;99895.78;4987184;28;19926;-91
2023/04/26 00:19:11;;;;;;;;;;;;;;;12.01;87.43;99902.47;4994038;28;19963;-91
2023/04/26 00:21:37;;;;;;;;;;;;;;;12.02;87.43;99901.44;4977700;28;19925;-91
2023/04/26 00:24:08;;;;;;;;;;;;;;;12.02;87.10;99903.28;4978031;28;20306;-90
2023/04/26 00:26:50;;;;;;;;;;;;;;;11.99;87.29;99893.75;4990380;28;19937;-90
2023/04/26 00:29:17;;;;;;;;;;;;;;;11.95;87.71;99892.44;4985724;28;19972;-90
2023/04/26 00:31:47;;;;;;;;;;;;;;;11.95;87.98;99894.31;4992893;28;19940;-91
2023/04/26 00:34:13;;;;;;;;;;;;;;;11.90;88.05;99900.25;4981249;28;20005;-90
2023/04/26 00:36:41;;;;;;;;;;;;;;;11.99;87.58;99891.03;4984037;28;20252;-89
2023/04/26 00:39:09;;;;;;;;;;;;;;;12.00;87.80;99900.78;4974608;28;19922;-88
2023/04/26 00:41:39;;;;;;;;;;;;;;;11.91;88.33;99888.44;4976629;28;19949;-89
2023/04/26 00:44:05;;;;;;;;;;;;;;;11.84;89.06;99900.97;4967239;28;19929;-94
2023/04/26 00:46:30;;;;;;;;;;;;;;;11.78;90.01;99896.34;4980827;28;19926;-90
2023/04/26 00:48:57;;;;;;;;;;;;;;;11.72;90.68;99895.22;4973876;28;19956;-90
2023/04/26 00:51:22;;;;;;;;;;;;;;;11.71;91.70;99895.44;4966638;28;20446;-89
2023/04/26 00:53:49;;;;;;;;;;;;;;;11.71;92.21;99892.72;4990646;28;20374;-91
2023/04/26 00:56:15;;;;;;;;;;;;;;;11.51;93.45;99895.13;4991492;28;19934;-90
2023/04/26 00:58:43;;;;;;;;;;;;;;;11.49;93.43;99894.47;4988057;28;19926;-91
2023/04/26 01:01:09;;;;;;;;;;;;;;;11.33;94.54;99890.09;4954348;28;20029;-91
2023/04/26 01:03:35;;;;;;;;;;;;;;;11.38;94.28;99885.88;4967485;28;19929;-89
2023/04/26 01:06:01;;;;;;;;;;;;;;;11.32;94.28;99888.44;4977136;28;19976;-91
2023/04/26 01:08:28;;;;;;;;;;;;;;;11.37;94.21;99894.09;4958121;28;20339;-90
2023/04/26 01:10:57;;;;;;;;;;;;;;;11.48;93.60;99890.13;4982899;28;20298;-91
2023/04/26 01:13:24;;;;;;;;;;;;;;;11.46;93.76;99886.78;4994397;28;20012;-89
2023/04/26 01:15:52;;;;;;;;;;;;;;;11.48;93.51;99890.97;4968585;28;19953;-90
2023/04/26 01:18:17;;;;;;;;;;;;;;;11.40;94.15;99882.97;4972271;28;19937;-87
2023/04/26 01:20:43;;;;;;;;;;;;;;;11.44;93.80;99889.66;4968305;28;19926;-91
2023/04/26 01:23:10;;;;;;;;;;;;;;;11.38;94.21;99885.88;4969752;28;20089;-91
2023/04/26 01:25:37;;;;;;;;;;;;;;;11.41;93.78;99890.03;4972809;28;19984;-91
2023/04/26 01:28:02;;;;;;;;;;;;;;;11.46;93.61;99882.25;4968124;28;19993;-91
2023/04/26 01:30:30;;;;;;;;;;;;;;;11.52;92.87;99878.81;4979567;28;19930;-91
2023/04/26 01:33:00;;;;;;;;;;;;;;;11.55;93.18;99875.75;4964977;28;20420;-87
2023/04/26 01:35:26;;;;;;;;;;;;;;;11.57;92.76;99879.09;4972971;28;20003;-91
2023/04/26 01:37:52;;;;;;;;;;;;;;;11.59;92.40;99877.03;4959744;28;20387;-90
2023/04/26 01:40:18;;;;;;;;;;;;;;;11.54;92.78;99874.09;4982702;28;20211;-94
2023/04/26 01:42:44;;;;;;;;;;;;;;;11.45;93.50;99869.81;4976246;28;19937;-89
2023/04/26 01:45:12;;;;;;;;;;;;;;;11.56;92.92;99868.50;4966014;28;19926;-88
2023/04/26 01:47:39;;;;;;;;;;;;;;;11.56;92.77;99872.00;4970953;28;19922;-90
2023/04/26 01:50:05;;;;;;;;;;;;;;;11.66;91.86;99860.97;4973302;28;20108;-90
2023/04/26 01:52:31;;;;;;;;;;;;;;;11.46;92.64;99866.09;4990181;28;19961;-88
2023/04/26 01:54:57;;;;;;;;;;;;;;;11.59;92.10;99870.84;4992365;28;19914;-89
2023/04/26 01:57:23;;;;;;;;;;;;;;;11.59;91.65;99860.06;4976877;28;19945;-90
2023/04/26 01:59:53;;;;;;;;;;;;;;;11.48;92.25;99865.91;4986946;28;19932;-89
2023/04/26 02:02:23;;;;;;;;;;;;;;;11.48;91.95;99858.66;4988057;28;19922;-91
2023/04/26 02:04:49;;;;;;;;;;;;;;;11.50;91.39;99853.94;4971482;28;20268;-89
2023/04/26 02:07:15;;;;;;;;;;;;;;;11.54;91.58;99859.75;4983626;28;20343;-89
2023/04/26 02:09:40;;;;;;;;;;;;;;;11.53;91.69;99864.31;4957580;28;19922;-88
2023/04/26 02:12:06;;;;;;;;;;;;;;;11.55;91.38;99864.16;4974066;28;19921;-89
2023/04/26 02:14:32;;;;;;;;;;;;;;;11.53;91.15;99864.31;4968450;28;20322;-88
2023/04/26 02:17:00;;;;;;;;;;;;;;;11.54;91.30;99857.94;4990013;28;19926;-88
2023/04/26 02:19:27;;;;;;;;;;;;;;;11.49;91.66;99865.69;4969588;28;20008;-89
2023/04/26 02:21:59;;;;;;;;;;;;;;;11.51;92.08;99858.28;4990762;28;19918;-88
2023/04/26 02:24:24;;;;;;;;;;;;;;;11.41;92.60;99866.66;4973201;28;19929;-90
2023/04/26 02:26:51;;;;;;;;;;;;;;;11.41;92.78;99863.13;4983136;28;19918;-88
2023/04/26 02:29:18;;;;;;;;;;;;;;;11.48;92.71;99863.22;4943941;28;19996;-87
2023/04/26 02:31:43;;;;;;;;;;;;;;;11.44;92.96;99873.50;4982722;28;19921;-88
2023/04/26 02:34:09;;;;;;;;;;;;;;;11.44;93.10;99865.44;4974479;28;19979;-90
2023/04/26 02:36:41;;;;;;;;;;;;;;;11.43;92.59;99866.47;4991993;28;19922;-91
2023/04/26 02:39:07;;;;;;;;;;;;;;;11.43;92.94;99869.16;4968982;28;19933;-91
2023/04/26 02:41:35;;;;;;;;;;;;;;;11.30;92.90;99861.72;4993261;28;19973;-90
2023/04/26 02:44:02;;;;;;;;;;;;;;;11.32;92.96;99864.22;4991492;28;19918;-91
2023/04/26 02:46:28;;;;;;;;;;;;;;;11.34;92.67;99868.41;4978430;28;19922;-90
2023/04/26 02:48:53;;;;;;;;;;;;;;;11.36;92.08;99855.59;4966549;28;20428;-91
2023/04/26 02:51:18;;;;;;;;;;;;;;;11.31;92.18;99858.03;4969520;28;19929;-93
2023/04/26 02:53:48;;;;;;;;;;;;;;;11.30;91.54;99861.72;4968480;28;19953;-89
2023/04/26 02:56:15;;;;;;;;;;;;;;;11.28;91.77;99865.63;4984126;28;20395;-89
2023/04/26 02:58:40;;;;;;;;;;;;;;;11.17;92.83;99858.84;4980092;28;19922;-89
2023/04/26 03:01:15;;;;;;;;;;;;;;;11.19;92.38;99860.34;4984984;28;20053;-90
2023/04/26 03:03:41;;;;;;;;;;;;;;;11.26;91.79;99859.59;4991867;28;19926;-89
2023/04/26 03:06:06;;;;;;;;;;;;;;;11.24;91.64;99856.22;4973005;28;20000;-90
2023/04/26 03:08:37;;;;;;;;;;;;;;;11.18;92.00;99855.97;4990166;28;20251;-90
2023/04/26 03:11:05;;;;;;;;;;;;;;;11.12;92.81;99848.66;4984644;28;19968;-90
2023/04/26 03:13:31;;;;;;;;;;;;;;;11.13;92.73;99850.31;4960904;28;20048;-88
2023/04/26 03:16:08;;;;;;;;;;;;;;;11.09;93.55;99854.38;4992791;28;19958;-89
2023/04/26 03:18:33;;;;;;;;;;;;;;;11.09;93.24;99846.31;4969780;28;20347;-90
2023/04/26 03:20:59;;;;;;;;;;;;;;;11.07;93.77;99848.34;4990246;28;19937;-89
2023/04/26 03:23:25;;;;;;;;;;;;;;;11.11;93.83;99854.19;4976511;28;19981;-90
2023/04/26 03:26:19;;;;;;;;;;;;;;;11.17;93.25;99857.00;4978050;28;19925;-90
2023/04/26 03:28:50;;;;;;;;;;;;;;;11.15;93.26;99855.50;4971245;28;20382;-89
2023/04/26 03:31:23;;;;;;;;;;;;;;;11.12;93.65;99847.78;4976434;28;19950;-87
2023/04/26 03:33:48;;;;;;;;;;;;;;;11.17;94.25;99857.00;4975663;28;19973;-85
2023/04/26 03:36:16;;;;;;;;;;;;;;;11.34;93.20;99856.81;4978018;28;19917;-89
2023/04/26 03:38:42;;;;;;;;;;;;;;;11.44;92.33;99859.22;4975822;28;20030;-89
2023/04/26 03:41:11;;;;;;;;;;;;;;;11.46;92.29;99854.50;4986032;28;19922;-86
2023/04/26 03:43:37;;;;;;;;;;;;;;;11.36;92.15;99854.78;5010772;28;19969;-87
2023/04/26 03:46:03;;;;;;;;;;;;;;;11.45;92.18;99852.81;4978323;28;20149;-88
2023/04/26 03:48:32;;;;;;;;;;;;;;;11.51;91.94;99852.91;4992459;28;19968;-91
2023/04/26 03:50:58;;;;;;;;;;;;;;;11.54;91.70;99849.00;4989920;28;19941;-88
2023/04/26 03:53:25;;;;;;;;;;;;;;;11.45;92.11;99852.81;4993032;28;20390;-89
2023/04/26 03:56:04;;;;;;;;;;;;;;;11.54;91.78;99851.69;4985180;28;19921;-89
2023/04/26 03:58:32;;;;;;;;;;;;;;;11.43;91.91;99844.94;4979309;28;20378;-89
2023/04/26 04:00:59;;;;;;;;;;;;;;;11.69;91.52;99851.69;4993727;28;20038;-89
2023/04/26 04:03:25;;;;;;;;;;;;;;;11.71;91.29;99858.56;4999011;28;19933;-90
2023/04/26 04:05:50;;;;;;;;;;;;;;;11.73;90.73;99858.34;5003349;28;19921;-86
2023/04/26 04:08:17;;;;;;;;;;;;;;;11.65;90.80;99853.91;5000660;28;19918;-86
2023/04/26 04:10:42;;;;;;;;;;;;;;;11.72;90.47;99862.06;5005326;28;19918;-89
2023/04/26 04:13:10;;;;;;;;;;;;;;;11.81;90.37;99863.66;4984120;28;19976;-87
2023/04/26 04:15:36;;;;;;;;;;;;;;;11.77;90.18;99863.16;4988166;28;19957;-89
2023/04/26 04:18:07;;;;;;;;;;;;;;;11.70;90.02;99874.88;4987902;28;20072;-90
2023/04/26 04:20:38;;;;;;;;;;;;;;;11.71;89.90;99876.56;4980572;28;20417;-91
2023/04/26 04:23:06;;;;;;;;;;;;;;;11.72;89.95;99875.53;4989964;28;19922;-89
2023/04/26 04:25:33;;;;;;;;;;;;;;;11.88;89.33;99874.53;4962303;28;19929;-89
2023/04/26 04:28:05;;;;;;;;;;;;;;;11.75;89.96;99869.78;4976648;28;20225;-91
2023/04/26 04:30:34;;;;;;;;;;;;;;;11.94;89.48;99868.38;4989043;28;19917;-90
2023/04/26 04:33:02;;;;;;;;;;;;;;;12.06;88.46;99871.41;4987228;28;19922;-90
2023/04/26 04:35:32;;;;;;;;;;;;;;;12.12;87.57;99865.28;4986800;28;19918;-90
2023/04/26 04:37:57;;;;;;;;;;;;;;;12.27;87.14;99874.16;4956640;28;19947;-90
2023/04/26 04:40:24;;;;;;;;;;;;;;;12.29;87.25;99873.94;4956996;28;19928;-91
2023/04/26 04:42:51;;;;;;;;;;;;;;;12.34;87.30;99874.19;4991643;28;20382;-91
2023/04/26 04:45:17;;;;;;;;;;;;;;;12.52;86.24;99887.25;4979883;28;19976;-91
2023/04/26 04:47:45;;;;;;;;;;;;;;;12.66;85.55;99875.56;4987058;28;19922;-92
2023/04/26 04:50:13;;;;;;;;;;;;;;;12.90;84.61;99868.94;4985456;28;19952;-90
2023/04/26 04:52:41;;;;;;;;;;;;;;;12.98;84.35;99876.03;4990300;28;19925;-89
2023/04/26 04:55:08;;;;;;;;;;;;;;;13.13;83.92;99874.06;4993197;28;19926;-90
2023/04/26 04:57:36;;;;;;;;;;;;;;;13.26;83.35;99878.75;4974868;28;20080;-89
2023/04/26 05:00:09;;;;;;;;;;;;;;;13.23;83.46;99874.56;4977535;28;19985;-91
2023/04/26 05:02:36;;;;;;;;;;;;;;;13.38;82.46;99879.06;4998886;28;20472;-86
2023/04/26 05:05:04;;;;;;;;;;;;;;;13.39;81.83;99878.00;4992945;28;19925;-88
2023/04/26 05:07:33;;;;;;;;;;;;;;;13.40;80.20;99874.28;4979109;28;19926;-87
2023/04/26 05:10:00;;;;;;;;;;;;;;;13.29;80.19;99881.06;4981344;28;20012;-89
2023/04/26 05:12:29;;;;;;;;;;;;;;;13.34;79.99;99880.47;4961641;28;20004;-88
2023/04/26 05:14:54;;;;;;;;;;;;;;;13.42;79.96;99880.34;4999713;28;19925;-88
2023/04/26 05:17:22;;;;;;;;;;;;;;;13.37;80.23;99883.63;5002387;28;19932;-89
2023/04/26 05:19:49;;;;;;;;;;;;;;;13.48;79.80;99879.53;4978584;28;19948;-89
2023/04/26 05:22:19;;;;;;;;;;;;;;;13.53;79.45;99890.56;4996011;28;19928;-89
2023/04/26 05:24:46;;;;;;;;;;;;;;;13.57;79.71;99889.13;4967307;28;20812;-90
2023/04/26 05:27:14;;;;;;;;;;;;;;;13.54;79.72;99881.44;5003083;28;19949;-91
2023/04/26 05:29:42;;;;;;;;;;;;;;;13.56;79.32;99897.44;4977963;28;19922;-91
2023/04/26 05:32:08;;;;;;;;;;;;;;;13.37;79.91;99890.88;4971463;28;19926;-88
2023/04/26 05:34:33;;;;;;;;;;;;;;;13.42;79.86;99891.13;4984336;28;19926;-88
2023/04/26 05:37:00;;;;;;;;;;;;;;;13.37;80.15;99891.72;4970723;28;20013;-86
2023/04/26 05:39:26;;;;;;;;;;;;;;;13.34;80.35;99904.78;4990133;28;19921;-90
2023/04/26 05:41:53;;;;;;;;;;;;;;;13.12;81.24;99903.97;4986246;28;19983;-86
2023/04/26 05:44:19;;;;;;;;;;;;;;;13.11;81.50;99895.03;4973881;28;19926;-86
2023/04/26 05:46:45;;;;;;;;;;;;;;;13.24;81.65;99905.91;4972338;28;19930;-87
2023/04/26 05:49:12;;;;;;;;;;;;;;;13.12;82.08;99907.50;4971252;28;20009;-86
2023/04/26 05:51:37;;;;;;;;;;;;;;;13.34;81.33;99905.59;4987325;28;19922;-87
2023/04/26 05:54:04;;;;;;;;;;;;;;;13.41;82.29;99901.06;4992543;28;20321;-87
2023/04/26 05:56:30;;;;;;;;;;;;;;;13.38;81.53;99897.94;4991673;28;19918;-88
2023/04/26 05:58:56;;;;;;;;;;;;;;;13.44;81.56;99910.66;4993582;28;19922;-87
2023/04/26 06:01:22;;;;;;;;;;;;;;;13.42;81.10;99907.34;4964162;28;19961;-88
2023/04/26 06:03:48;;;;;;;;;;;;;;;13.38;80.49;99909.56;4974477;28;19928;-88
2023/04/26 06:06:14;;;;;;;;;;;;;;;13.35;80.55;99914.56;4985268;28;19929;-87
2023/04/26 06:08:41;;;;;;;;;;;;;;;13.48;80.64;99917.31;4984577;28;19922;-90
2023/04/26 06:11:06;;;;;;;;;;;;;;;13.25;82.26;99925.63;4983393;28;19965;-86
2023/04/26 06:13:33;;;;;;;;;;;;;;;13.27;82.20;99919.06;4982904;28;20348;-88
2023/04/26 06:15:58;;;;;;;;;;;;;;;13.23;83.24;99925.84;4960414;28;19952;-90
2023/04/26 06:18:24;;;;;;;;;;;;;;;13.25;83.85;99922.94;4980743;28;20391;-90
2023/04/26 06:20:51;;;;;;;;;;;;;;;13.29;84.75;99922.38;4962427;28;20021;-84
2023/04/26 06:23:16;;;;;;;;;;;;;;;13.45;84.74;99920.44;4980310;28;19930;-85
2023/04/26 06:25:44;;;;;;;;;;;;;;;13.48;84.82;99917.31;4979469;28;19949;-83
2023/04/26 06:28:10;;;;;;;;;;;;;;;13.44;84.32;99925.00;4974002;28;20380;-87
2023/04/26 06:30:36;;;;;;;;;;;;;;;13.47;84.07;99930.00;4944547;28;19930;-87
2023/04/26 06:33:02;;;;;;;;;;;;;;;13.34;84.97;99920.97;4967070;28;19926;-90
2023/04/26 06:35:30;;;;;;;;;;;;;;;13.34;84.96;99920.97;4979865;28;20528;-85
2023/04/26 06:37:56;;;;;;;;;;;;;;;13.26;85.13;99925.47;4966998;28;19953;-87
2023/04/26 06:40:21;;;;;;;;;;;;;;;13.33;85.54;99930.13;4967116;28;19960;-86
2023/04/26 06:42:48;;;;;;;;;;;;;;;13.34;84.93;99927.19;4983226;28;19929;-89
2023/04/26 06:45:15;;;;;;;;;;;;;;;13.53;84.25;99933.75;4980599;28;19929;-88
2023/04/26 06:47:40;;;;;;;;;;;;;;;13.45;84.51;99931.22;4984570;28;19945;-88
2023/04/26 06:50:09;;;;;;;;;;;;;;;13.39;84.91;99932.88;4963786;28;20398;-91
2023/04/26 06:52:36;;;;;;;;;;;;;;;13.46;84.72;99932.88;4967034;28;19922;-91
2023/04/26 06:55:02;;;;;;;;;;;;;;;13.61;84.41;99933.63;4970349;28;20015;-90
2023/04/26 06:57:28;;;;;;;;;;;;;;;13.67;84.10;99930.13;4965322;28;20382;-90
2023/04/26 07:00:03;;;;;;;;;;;;;;;13.73;83.77;99940.13;4987242;28;19941;-93
2023/04/26 07:02:52;;;;;;;;;;;;;;;13.84;82.28;99936.03;4979234;28;19941;-90
2023/04/26 07:05:21;;;;;;;;;;;;;;;14.06;82.29;99942.16;4973671;28;19926;-93
2023/04/26 07:07:48;;;;;;;;;;;;;;;14.09;81.11;99944.47;4986936;28;19926;-91
2023/04/26 07:10:16;;;;;;;;;;;;;;;14.34;81.60;99946.63;4962041;28;19945;-92
2023/04/26 07:12:43;;;;;;;;;;;;;;;14.49;80.29;99936.50;4962743;28;21051;-92
2023/04/26 07:15:10;;;;;;;;;;;;;;;14.60;78.64;99942.38;4968545;28;19926;-91
2023/04/26 07:17:36;;;;;;;;;;;;;;;14.45;78.72;99943.34;4977574;28;19937;-91
2023/04/26 07:20:04;;;;;;;;;;;;;;;14.84;78.53;99947.19;4989556;28;20944;-90
2023/04/26 07:22:29;;;;;;;;;;;;;;;14.87;78.37;99948.69;4986362;28;19940;-91
2023/04/26 07:24:58;;;;;;;;;;;;;;;15.24;77.50;99941.84;4969862;28;19930;-88
2023/04/26 07:27:26;;;;;;;;;;;;;;;15.23;76.50;99939.31;4979831;28;19925;-92
2023/04/26 07:29:57;;;;;;;;;;;;;;;15.03;74.46;99945.56;4982644;28;20425;-88
2023/04/26 07:32:26;;;;;;;;;;;;;;;15.16;73.63;99945.56;4963883;28;19962;-91
2023/04/26 07:34:53;;;;;;;;;;;;;;;15.15;72.96;99943.09;5002998;28;19986;-89
2023/04/26 07:37:18;;;;;;;;;;;;;;;15.45;72.67;99948.03;4962668;28;19957;-90
2023/04/26 07:39:45;;;;;;;;;;;;;;;15.46;73.28;99945.13;4997767;28;19922;-87
2023/04/26 07:42:10;;;;;;;;;;;;;;;15.70;72.33;99942.81;4986571;28;19926;-87
2023/04/26 07:44:36;;;;;;;;;;;;;;;16.00;71.92;99938.56;4972930;28;20271;-89
2023/04/26 07:47:03;;;;;;;;;;;;;;;16.17;69.34;99936.19;4983850;28;19922;-90
2023/04/26 07:49:28;;;;;;;;;;;;;;;16.47;67.96;99935.66;4981911;28;19945;-91
2023/04/26 07:52:00;;;;;;;;;;;;;;;16.57;68.42;99937.88;4972800;28;19921;-90
2023/04/26 07:54:29;;;;;;;;;;;;;;;16.95;66.60;99940.59;4989154;28;19926;-93
2023/04/26 07:56:58;;;;;;;;;;;;;;;17.50;64.97;99940.75;4957374;28;19926;-88
2023/04/26 07:59:25;;;;;;;;;;;;;;;17.72;64.62;99941.16;4988686;28;20375;-86
2023/04/26 08:01:52;;;;;;;;;;;;;;;18.02;62.55;99940.44;4963882;28;19928;-95
2023/04/26 08:04:21;;;;;;;;;;;;;;;18.48;61.23;99943.63;4973714;28;19910;-92
2023/04/26 08:06:51;;;;;;;;;;;;;;;18.71;60.32;99943.72;4976614;28;19922;-94
2023/04/26 08:09:18;;;;;;;;;;;;;;;18.81;58.79;99943.19;4996328;23;19957;-93
2023/04/26 08:11:43;;;;;;;;;;;;;;;19.08;56.60;99946.34;4976149;28;19964;-88
2023/04/26 08:14:08;;;;;;;;;;;;;;;18.97;56.03;99936.25;4972242;28;19952;-89
2023/04/26 08:16:34;;;;;;;;;;;;;;;18.69;55.77;99942.28;4952368;28;19926;-88
2023/04/26 08:19:02;;;;;;;;;;;;;;;19.36;54.74;99945.66;4952344;28;19927;-88
2023/04/26 08:21:28;;;;;;;;;;;;;;;19.52;53.82;99941.38;4932651;28;20386;-91
2023/04/26 08:23:55;;;;;;;;;;;;;;;19.94;53.51;99934.97;4971037;28;19921;-89
2023/04/26 08:26:23;;;;;;;;;;;;;;;20.17;52.62;99931.34;4971968;28;19922;-89
2023/04/26 08:28:50;;;;;;;;;;;;;;;19.81;52.97;99942.34;4961691;28;19957;-89
2023/04/26 08:31:16;;;;;;;;;;;;;;;19.91;52.77;99932.72;4967073;28;20042;-88
2023/04/26 08:33:41;;;;;;;;;;;;;;;19.86;51.49;99936.19;4963243;28;20406;-88
2023/04/26 08:36:08;;;;;;;;;;;;;;;19.40;52.09;99927.75;4968219;28;20375;-88
2023/04/26 08:38:35;;;;;;;;;;;;;;;19.33;52.28;99924.31;4977904;28;20009;-90
2023/04/26 08:41:00;;;;;;;;;;;;;;;18.80;54.21;99933.38;4955449;28;20058;-89
2023/04/26 08:43:27;;;;;;;;;;;;;;;18.24;55.44;99929.06;4953313;28;19966;-88
2023/04/26 08:45:53;;;;;;;;;;;;;;;18.12;57.09;99929.88;4951055;28;19968;-88
2023/04/26 08:48:18;;;;;;;;;;;;;;;18.26;56.31;99935.97;4986365;28;19933;-89
2023/04/26 08:50:45;;;;;;;;;;;;;;;18.20;56.85;99933.31;4954809;28;19922;-91
2023/04/26 08:53:16;;;;;;;;;;;;;;;18.27;57.56;99929.47;4955028;28;19918;-90
2023/04/26 08:55:42;;;;;;;;;;;;;;;18.26;57.71;99933.25;4955030;28;19980;-89
2023/04/26 08:58:07;;;;;;;;;;;;;;;18.22;58.65;99932.03;4969336;28;19918;-88
2023/04/26 09:00:33;;;;;;;;;;;;;;;17.87;59.03;99931.84;4973931;28;20367;-88
2023/04/26 09:02:58;;;;;;;;;;;;;;;17.96;60.05;99927.75;4962031;28;19923;-92
2023/04/26 09:05:26;;;;;;;;;;;;;;;17.81;61.69;99936.28;4968067;28;19992;-88
2023/04/26 09:07:55;;;;;;;;;;;;;;;17.89;61.19;99938.72;4950963;29;19914;-88
2023/04/26 09:10:21;;;;;;;;;;;;;;;17.85;60.96;99942.94;4962445;28;19935;-90
2023/04/26 09:12:53;;;;;;;;;;;;;;;17.91;60.21;99936.59;4982878;28;19944;-88
2023/04/26 09:15:20;;;;;;;;;;;;;;;17.62;60.15;99938.13;4942389;28;19925;-89
2023/04/26 09:17:45;;;;;;;;;;;;;;;16.97;60.71;99940.38;4940816;28;19926;-89
2023/04/26 09:20:21;;;;;;;;;;;;;;;16.74;63.18;99941.75;4973968;28;19926;-90
2023/04/26 09:22:47;;;;;;;;;;;;;;;16.46;63.33;99940.25;4957438;28;19933;-89
2023/04/26 09:25:13;;;;;;;;;;;;;;;16.49;62.89;99941.69;4976417;28;19950;-88
2023/04/26 09:27:39;;;;;;;;;;;;;;;16.49;63.12;99941.69;4978183;28;20035;-88
2023/04/26 09:30:38;;;;;;;;;;;;;;;16.55;64.06;99948.97;4970890;28;19921;-90
2023/04/26 09:33:08;;;;;;;;;;;;;;;16.37;62.14;99946.16;4966217;28;19922;-90
2023/04/26 09:35:40;;;;;;;;;;;;;;;16.45;65.06;99945.88;4960295;28;19953;-90
2023/04/26 09:38:06;;;;;;;;;;;;;;;16.40;63.84;99945.72;4976058;28;20296;-89
2023/04/26 09:40:32;;;;;;;;;;;;;;;16.36;62.54;99936.31;4962467;28;19957;-89
2023/04/26 09:43:13;;;;;;;;;;;;;;;16.43;63.83;99937.94;4979505;28;19918;-88
2023/04/26 09:45:49;;;;;;;;;;;;;;;16.52;64.68;99935.81;4993364;28;19994;-87
2023/04/26 09:48:29;;;;;;;;;;;;;;;16.31;68.22;99942.41;4965834;28;19985;-87
2023/04/26 09:50:59;;;;;;;;;;;;;;;16.27;69.42;99945.75;4963796;28;19922;-88
2023/04/26 09:53:26;;;;;;;;;;;;;;;16.15;71.12;99941.00;4953676;28;19933;-90
2023/04/26 09:55:52;;;;;;;;;;;;;;;16.25;70.84;99946.81;4955940;28;19981;-88
2023/04/26 09:58:19;;;;;;;;;;;;;;;16.09;70.15;99943.75;4963744;28;20041;-91
2023/04/26 10:00:47;;;;;;;;;;;;;;;16.01;69.54;99945.69;4970546;28;19926;-89
2023/04/26 10:03:16;;;;;;;;;;;;;;;15.69;71.08;99952.00;4956083;28;19929;-88
2023/04/26 10:05:42;;;;;;;;;;;;;;;15.63;71.77;99950.94;4957745;28;20068;-90
2023/04/26 10:08:08;;;;;;;;;;;;;;;15.58;73.11;99948.84;4959638;28;19941;-89
2023/04/26 10:10:34;;;;;;;;;;;;;;;15.75;73.34;99949.25;4959290;28;19922;-88
2023/04/26 10:13:00;;;;;;;;;;;;;;;15.60;73.12;99948.66;4966168;28;19922;-87
2023/04/26 10:15:27;;;;;;;;;;;;;;;15.70;73.07;99943.66;4974971;28;19980;-89
2023/04/26 10:17:54;;;;;;;;;;;;;;;15.44;74.35;99935.56;4934783;28;19926;-89
2023/04/26 10:20:26;;;;;;;;;;;;;;;15.51;76.04;99941.78;4973527;28;19997;-89
2023/04/26 10:23:00;;;;;;;;;;;;;;;15.75;74.59;99933.00;4969662;28;19985;-89
2023/04/26 10:25:38;;;;;;;;;;;;;;;15.79;74.14;99930.72;4944457;28;19930;-89
2023/04/26 10:28:03;;;;;;;;;;;;;;;15.95;73.34;99932.13;4975927;28;20252;-89
2023/04/26 10:30:29;;;;;;;;;;;;;;;15.77;74.74;99939.06;4955877;28;19922;-89
2023/04/26 10:33:01;;;;;;;;;;;;;;;16.07;73.67;99925.00;4954906;28;19942;-89
2023/04/26 10:35:29;;;;;;;;;;;;;;;16.52;73.08;99927.69;4985394;28;19957;-89
2023/04/26 10:38:04;;;;;;;;;;;;;;;16.99;71.90;99928.22;4957156;28;19918;-90
2023/04/26 10:40:49;;;;;;;;;;;;;;;17.46;67.66;99934.09;4971434;28;20326;-89
2023/04/26 10:43:14;;;;;;;;;;;;;;;17.40;66.94;99926.03;4962856;28;20462;-88
2023/04/26 10:45:45;;;;;;;;;;;;;;;17.48;67.61;99928.44;4971251;28;19918;-87
2023/04/26 10:48:17;;;;;;;;;;;;;;;18.04;64.62;99927.44;4952865;28;19940;-89
2023/04/26 10:51:00;;;;;;;;;;;;;;;18.34;65.02;99919.31;4986295;28;19928;-88
2023/04/26 10:53:29;;;;;;;;;;;;;;;18.96;63.12;99920.94;4970408;28;20083;-89
2023/04/26 10:55:54;;;;;;;;;;;;;;;19.30;60.26;99922.06;4951855;28;20265;-89
2023/04/26 10:58:29;;;;;;;;;;;;;;;18.99;58.93;99928.66;4963007;28;19969;-87
2023/04/26 11:01:10;;;;;;;;;;;;;;;19.05;59.46;99935.88;4969105;28;19922;-90
2023/04/26 11:03:36;;;;;;;;;;;;;;;19.39;59.23;99933.44;4943957;29;20053;-87
2023/04/26 11:06:14;;;;;;;;;;;;;;;19.39;58.13;99930.72;4969837;28;19993;-90
2023/04/26 11:08:42;;;;;;;;;;;;;;;19.59;57.28;99931.16;4964725;28;19918;-88
2023/04/26 11:11:12;;;;;;;;;;;;;;;19.67;55.60;99929.19;4972308;28;19929;-89
2023/04/26 11:13:42;;;;;;;;;;;;;;;20.46;54.04;99921.28;4971151;28;19918;-89
2023/04/26 11:16:15;;;;;;;;;;;;;;;20.74;52.24;99925.91;4952503;28;19922;-89
2023/04/26 11:18:41;;;;;;;;;;;;;;;21.35;51.12;99920.63;4947565;29;20328;-90
2023/04/26 11:21:07;;;;;;;;;;;;;;;21.10;50.45;99909.31;4966387;28;19926;-89
2023/04/26 11:23:33;;;;;;;;;;;;;;;20.71;51.26;99918.22;4952587;28;19925;-90
2023/04/26 11:25:59;;;;;;;;;;;;;;;20.92;51.18;99922.13;4954439;28;19990;-88
2023/04/26 11:28:26;;;;;;;;;;;;;;;20.59;51.69;99915.56;4978942;28;19918;-89
2023/04/26 11:30:52;;;;;;;;;;;;;;;20.74;51.66;99908.69;4970777;28;19941;-88
2023/04/26 11:33:21;;;;;;;;;;;;;;;20.10;53.35;99919.75;4993749;28;19937;-87
2023/04/26 11:35:50;;;;;;;;;;;;;;;20.02;53.67;99919.06;4987665;28;20035;-88
2023/04/26 11:38:15;;;;;;;;;;;;;;;19.74;54.89;99919.81;4945585;28;19940;-89
2023/04/26 11:40:41;;;;;;;;;;;;;;;19.68;54.93;99920.78;4962031;28;19961;-92
2023/04/26 11:43:08;;;;;;;;;;;;;;;18.97;55.80;99917.19;4955264;28;19992;-90
2023/04/26 11:45:35;;;;;;;;;;;;;;;19.15;56.51;99922.53;4937511;28;19937;-92
2023/04/26 11:48:23;;;;;;;;;;;;;;;18.70;56.90;99920.25;4965516;28;19937;-91
2023/04/26 11:50:48;;;;;;;;;;;;;;;18.28;58.63;99920.22;4965250;28;19929;-89
2023/04/26 11:53:17;;;;;;;;;;;;;;;18.48;59.10;99913.69;4965407;28;19989;-88
2023/04/26 11:55:43;;;;;;;;;;;;;;;18.32;58.84;99915.97;4949309;28;19981;-86
2023/04/26 11:58:10;;;;;;;;;;;;;;;18.49;58.16;99909.91;4946633;28;20009;-88
2023/04/26 12:00:35;;;;;;;;;;;;;;;18.43;58.34;99911.66;4980065;28;20344;-88
2023/04/26 12:03:10;;;;;;;;;;;;;;;18.43;58.52;99913.56;4933720;28;20017;-87
2023/04/26 12:05:37;;;;;;;;;;;;;;;18.17;59.11;99917.44;4969275;28;19918;-88
2023/04/26 12:08:03;;;;;;;;;;;;;;;17.85;60.46;99914.91;4975011;28;19964;-88
2023/04/26 12:10:33;;;;;;;;;;;;;;;17.26;61.46;99911.72;4971761;28;19926;-88
2023/04/26 12:12:59;;;;;;;;;;;;;;;17.03;62.47;99918.59;4958882;28;20011;-86
2023/04/26 12:15:29;;;;;;;;;;;;;;;16.65;64.15;99919.47;4987500;28;19939;-88
2023/04/26 12:18:11;;;;;;;;;;;;;;;16.70;64.36;99928.84;4955589;28;19926;-86
2023/04/26 12:20:38;;;;;;;;;;;;;;;16.54;64.76;99920.16;4957307;28;19929;-87
2023/04/26 12:23:07;;;;;;;;;;;;;;;16.65;64.23;99918.66;4971151;28;20386;-88
2023/04/26 12:25:33;;;;;;;;;;;;;;;16.56;64.50;99928.91;4953831;28;19919;-88
2023/04/26 12:27:58;;;;;;;;;;;;;;;16.55;64.95;99915.56;4953677;28;19922;-88
2023/04/26 12:30:26;;;;;;;;;;;;;;;16.58;64.88;99924.09;4975860;28;20274;-89
2023/04/26 12:32:52;;;;;;;;;;;;;;;16.60;65.10;99919.31;4951527;28;19930;-90
2023/04/26 12:35:17;;;;;;;;;;;;;;;16.24;64.82;99926.16;4955754;28;19978;-90
2023/04/26 12:37:42;;;;;;;;;;;;;;;15.85;67.13;99919.03;4970297;28;20306;-88
2023/04/26 12:40:14;;;;;;;;;;;;;;;15.63;66.83;99918.41;4955935;28;19949;-87
2023/04/26 12:42:44;;;;;;;;;;;;;;;15.53;67.77;99920.75;4956473;28;19922;-89
2023/04/26 12:45:09;;;;;;;;;;;;;;;15.34;67.74;99925.16;4976103;28;19926;-87
2023/04/26 12:47:36;;;;;;;;;;;;;;;15.07;68.83;99921.63;4951691;28;20407;-86
2023/04/26 12:50:03;;;;;;;;;;;;;;;15.11;68.83;99917.47;4972265;28;20402;-89
2023/04/26 12:52:30;;;;;;;;;;;;;;;15.12;69.85;99924.53;4951883;28;19941;-88